createdAt,value
2019-02-25T00:00:12.049Z,24.77
2019-02-25T00:02:39.294Z,26.43
2019-02-25T00:05:07.038Z,26.90
2019-02-25T00:07:34.295Z,28.90
2019-02-25T00:10:01.592Z,29.60
2019-02-25T00:12:28.867Z,26.67
2019-02-25T00:14:56.097Z,26.13
2019-02-25T00:17:23.402Z,30.27
2019-02-25T00:19:51.701Z,29.60
2019-02-25T00:22:18.954Z,31.33
2019-02-25T00:24:46.811Z,28.03
2019-02-25T00:27:14.054Z,27.33
2019-02-25T00:29:41.359Z,24.20
2019-02-25T00:32:08.648Z,26.40
2019-02-25T00:34:35.913Z,24.60
2019-02-25T00:37:03.243Z,25.03
2019-02-25T00:39:30.483Z,26.93
2019-02-25T00:41:57.762Z,24.40
2019-02-25T00:44:25.053Z,24.90
2019-02-25T00:46:54.423Z,23.90
2019-02-25T00:49:22.053Z,28.03
2019-02-25T00:51:58.855Z,28.17
2019-02-25T00:54:26.113Z,26.40
2019-02-25T00:56:53.391Z,22.57
2019-02-25T00:59:20.631Z,24.53
2019-02-25T01:01:47.885Z,24.83
2019-02-25T01:04:15.179Z,25.10
2019-02-25T01:06:42.433Z,33.50
2019-02-25T01:09:09.720Z,31.00
2019-02-25T01:11:36.998Z,29.70
2019-02-25T01:14:04.358Z,28.60
2019-02-25T01:16:31.608Z,25.97
2019-02-25T01:19:01.133Z,26.53
2019-02-25T01:21:28.373Z,27.57
2019-02-25T01:23:55.745Z,28.80
2019-02-25T01:26:25.331Z,26.47
2019-02-25T01:28:52.587Z,26.90
2019-02-25T01:31:19.905Z,29.03
2019-02-25T01:33:47.209Z,27.70
2019-02-25T01:36:14.443Z,23.87
2019-02-25T01:38:41.735Z,26.00
2019-02-25T01:41:08.999Z,25.67
2019-02-25T01:43:36.251Z,26.93
2019-02-25T01:46:03.553Z,24.33
2019-02-25T01:48:30.799Z,28.63
2019-02-25T01:50:58.049Z,25.67
2019-02-25T01:53:25.324Z,23.90
2019-02-25T01:55:52.573Z,23.23
2019-02-25T01:58:19.843Z,24.60
2019-02-25T02:00:47.103Z,24.53
2019-02-25T02:03:14.389Z,22.30
2019-02-25T02:05:41.642Z,24.23
2019-02-25T02:08:08.874Z,28.43
2019-02-25T02:10:36.136Z,21.97
2019-02-25T02:13:03.373Z,27.03
2019-02-25T02:15:30.651Z,27.70
2019-02-25T02:17:57.937Z,26.83
2019-02-25T02:20:25.233Z,25.03
2019-02-25T02:22:52.469Z,30.87
2019-02-25T02:25:19.751Z,25.83
2019-02-25T02:27:47.015Z,23.40
2019-02-25T02:30:15.986Z,24.13
2019-02-25T02:32:43.255Z,25.13
2019-02-25T02:35:10.694Z,25.60
2019-02-25T02:37:37.947Z,24.40
2019-02-25T02:40:06.052Z,28.67
2019-02-25T02:42:33.513Z,28.53
2019-02-25T02:45:16.919Z,26.30
2019-02-25T02:47:56.336Z,24.60
2019-02-25T02:50:25.052Z,27.33
2019-02-25T02:52:52.318Z,24.10
2019-02-25T02:55:19.591Z,23.67
2019-02-25T02:57:46.838Z,24.13
2019-02-25T03:00:16.010Z,25.73
2019-02-25T03:02:43.294Z,24.60
2019-02-25T03:05:12.587Z,26.17
2019-02-25T03:07:39.866Z,26.30
2019-02-25T03:10:08.301Z,26.30
2019-02-25T03:12:35.555Z,24.07
2019-02-25T03:15:03.387Z,25.07
2019-02-25T03:17:30.656Z,26.17
2019-02-25T03:19:58.363Z,28.40
2019-02-25T03:22:25.622Z,33.20
2019-02-25T03:24:52.933Z,31.40
2019-02-25T03:27:20.171Z,26.27
2019-02-25T03:29:47.455Z,25.47
2019-02-25T03:32:14.709Z,24.47
2019-02-25T03:34:41.966Z,23.33
2019-02-25T03:37:09.249Z,26.17
2019-02-25T03:39:36.527Z,26.10
2019-02-25T03:42:03.978Z,26.93
2019-02-25T03:44:31.315Z,26.90
2019-02-25T03:46:58.544Z,28.73
2019-02-25T03:49:25.801Z,27.90
2019-02-25T03:51:53.125Z,24.57
2019-02-25T03:54:20.354Z,23.53
2019-02-25T03:56:47.628Z,22.53
2019-02-25T03:59:14.926Z,24.03
2019-02-25T04:01:42.257Z,27.03
2019-02-25T04:04:09.495Z,27.37
2019-02-25T04:06:36.896Z,26.57
2019-02-25T04:09:05.876Z,26.83
2019-02-25T04:11:33.150Z,24.90
2019-02-25T04:14:00.382Z,22.30
2019-02-25T04:16:27.975Z,24.00
2019-02-25T04:18:55.220Z,24.40
2019-02-25T04:21:22.504Z,28.47
2019-02-25T04:23:49.820Z,27.97
2019-02-25T04:26:17.133Z,24.77
2019-02-25T04:28:44.386Z,27.93
2019-02-25T04:31:11.615Z,29.10
2019-02-25T04:33:38.903Z,25.70
2019-02-25T04:36:06.147Z,26.13
2019-02-25T04:38:33.467Z,25.67
2019-02-25T04:41:00.696Z,20.77
2019-02-25T04:43:27.939Z,23.67
2019-02-25T04:45:55.222Z,23.57
2019-02-25T04:48:22.484Z,23.07
2019-02-25T04:50:49.732Z,23.13
2019-02-25T04:53:17.024Z,23.57
2019-02-25T04:55:44.313Z,23.17
2019-02-25T04:58:11.569Z,24.33
2019-02-25T05:00:38.840Z,25.03
2019-02-25T05:03:06.097Z,21.67
2019-02-25T05:05:33.345Z,21.50
2019-02-25T05:08:00.664Z,21.10
2019-02-25T05:10:27.896Z,23.83
2019-02-25T05:13:01.327Z,20.87
2019-02-25T05:15:28.916Z,21.13
2019-02-25T05:17:56.167Z,20.87
2019-02-25T05:20:23.460Z,22.17
2019-02-25T05:22:50.679Z,21.87
2019-02-25T05:25:17.970Z,23.53
2019-02-25T05:27:45.278Z,21.57
2019-02-25T05:30:12.629Z,19.43
2019-02-25T05:32:39.869Z,21.13
2019-02-25T05:35:07.987Z,20.80
2019-02-25T05:37:35.313Z,18.77
2019-02-25T05:40:02.741Z,18.40
2019-02-25T05:42:29.980Z,21.50
2019-02-25T05:44:57.254Z,20.87
2019-02-25T05:47:24.498Z,21.60
2019-02-25T05:49:51.737Z,18.20
2019-02-25T05:52:19.017Z,20.87
2019-02-25T05:54:46.245Z,21.50
2019-02-25T05:57:13.503Z,17.77
2019-02-25T05:59:40.894Z,20.27
2019-02-25T06:02:08.144Z,20.90
2019-02-25T06:04:35.415Z,24.90
2019-02-25T06:07:02.698Z,20.00
2019-02-25T06:09:29.919Z,20.70
2019-02-25T06:11:57.147Z,23.27
2019-02-25T06:14:24.405Z,17.77
2019-02-25T06:16:51.689Z,21.40
2019-02-25T06:19:18.917Z,19.10
2019-02-25T06:21:46.196Z,17.17
2019-02-25T06:24:13.513Z,21.10
2019-02-25T06:26:40.790Z,22.20
2019-02-25T06:29:08.078Z,20.37
2019-02-25T06:31:35.361Z,25.33
2019-02-25T06:34:02.589Z,25.47
2019-02-25T06:36:29.822Z,21.20
2019-02-25T06:38:57.113Z,21.43
2019-02-25T06:41:24.356Z,21.03
2019-02-25T06:43:51.603Z,19.30
2019-02-25T06:46:18.875Z,19.30
2019-02-25T06:48:46.116Z,22.83
2019-02-25T06:51:16.245Z,21.57
2019-02-25T06:53:43.597Z,23.00
2019-02-25T06:56:10.838Z,22.87
2019-02-25T06:58:38.112Z,26.77
2019-02-25T07:01:05.406Z,22.93
2019-02-25T07:03:33.636Z,21.70
2019-02-25T07:06:14.976Z,28.17
2019-02-25T07:09:07.377Z,33.70
2019-02-25T07:12:00.089Z,30.10
2019-02-25T07:14:49.705Z,25.93
2019-02-25T07:17:39.108Z,24.07
2019-02-25T07:20:33.562Z,26.47
2019-02-25T07:23:30.458Z,27.90
2019-02-25T07:26:13.672Z,24.47
2019-02-25T07:28:46.489Z,22.47
2019-02-25T07:31:51.498Z,28.77
2019-02-25T07:34:41.081Z,30.13
2019-02-25T07:37:37.204Z,27.57
2019-02-25T07:40:27.580Z,26.67
2019-02-25T07:43:02.702Z,22.33
2019-02-25T07:45:47.858Z,23.30
2019-02-25T07:48:34.676Z,26.77
2019-02-25T07:51:11.026Z,29.33
2019-02-25T07:53:57.865Z,29.50
2019-02-25T07:56:41.944Z,28.87
2019-02-25T07:59:31.443Z,28.90
2019-02-25T08:02:24.067Z,27.90
2019-02-25T08:05:29.216Z,26.97
2019-02-25T08:08:21.999Z,23.10
2019-02-25T08:11:23.773Z,25.03
2019-02-25T08:14:13.520Z,23.50
2019-02-25T08:17:12.162Z,26.63
2019-02-25T08:19:58.977Z,23.57
2019-02-25T08:22:36.068Z,26.03
2019-02-25T08:25:21.843Z,24.83
2019-02-25T08:28:27.025Z,22.20
2019-02-25T08:31:12.944Z,22.27
2019-02-25T08:33:55.545Z,23.70
2019-02-25T08:37:25.080Z,23.53
2019-02-25T08:40:24.446Z,22.77
2019-02-25T08:42:55.943Z,23.17
2019-02-25T08:45:46.174Z,25.33
2019-02-25T08:48:35.048Z,26.23
2019-02-25T08:51:02.345Z,24.50
2019-02-25T08:53:31.933Z,24.07
2019-02-25T08:55:59.183Z,23.07
2019-02-25T08:58:26.482Z,23.97
2019-02-25T09:00:53.756Z,24.87
2019-02-25T09:03:21.081Z,23.37
2019-02-25T09:05:48.327Z,24.37
2019-02-25T09:08:15.580Z,22.90
2019-02-25T09:10:42.873Z,24.87
2019-02-25T09:13:10.112Z,24.73
2019-02-25T09:15:37.360Z,26.57
2019-02-25T09:18:03.501Z,23.43
2019-02-25T09:20:30.751Z,23.53
2019-02-25T09:22:57.988Z,21.17
2019-02-25T09:25:25.268Z,21.67
2019-02-25T09:27:52.645Z,21.47
2019-02-25T09:30:20.009Z,24.57
2019-02-25T09:32:49.397Z,23.63
2019-02-25T09:35:16.655Z,20.33
2019-02-25T09:37:43.957Z,22.13
2019-02-25T09:40:13.139Z,21.30
2019-02-25T09:42:40.484Z,18.13
2019-02-25T09:45:09.334Z,19.47
2019-02-25T09:47:36.581Z,20.93
2019-02-25T09:50:04.429Z,19.90
2019-02-25T09:52:31.695Z,18.63
2019-02-25T09:54:58.965Z,19.17
2019-02-25T09:57:26.232Z,20.10
2019-02-25T09:59:53.599Z,19.20
2019-02-25T10:02:20.892Z,19.80
2019-02-25T10:04:48.159Z,19.37
2019-02-25T10:07:15.449Z,20.13
2019-02-25T10:09:42.715Z,17.90
2019-02-25T10:12:09.956Z,16.67
2019-02-25T10:14:37.246Z,18.63
2019-02-25T10:17:04.559Z,19.63
2019-02-25T10:19:31.808Z,17.90
2019-02-25T10:21:59.109Z,19.07
2019-02-25T10:24:26.353Z,15.80
2019-02-25T10:26:53.698Z,17.40
2019-02-25T10:29:20.959Z,17.23
2019-02-25T10:31:48.221Z,16.07
2019-02-25T10:34:15.508Z,14.43
2019-02-25T10:36:44.026Z,18.20
2019-02-25T10:39:13.046Z,16.97
2019-02-25T10:41:41.153Z,16.83
2019-02-25T10:44:08.662Z,18.00
2019-02-25T10:46:36.017Z,17.70
2019-02-25T10:49:11.157Z,14.43
2019-02-25T10:51:32.712Z,14.37
2019-02-25T10:53:59.968Z,14.40
2019-02-25T10:56:34.819Z,15.30
2019-02-25T10:59:03.960Z,13.17
2019-02-25T11:01:31.240Z,14.13
2019-02-25T11:03:58.541Z,14.40
2019-02-25T11:06:27.335Z,16.30
2019-02-25T11:09:01.267Z,15.53
2019-02-25T11:11:32.086Z,13.73
2019-02-25T11:14:00.991Z,12.93
2019-02-25T11:16:28.682Z,13.00
2019-02-25T11:18:57.021Z,13.70
2019-02-25T11:21:25.281Z,11.60
2019-02-25T11:23:53.407Z,13.60
2019-02-25T11:26:20.968Z,12.50
2019-02-25T11:28:48.286Z,14.90
2019-02-25T11:31:26.368Z,14.03
2019-02-25T11:33:52.969Z,13.43
2019-02-25T11:36:21.982Z,12.83
2019-02-25T11:38:49.504Z,11.10
2019-02-25T11:41:16.752Z,14.03
2019-02-25T11:43:45.861Z,16.30
2019-02-25T11:46:13.233Z,12.97
2019-02-25T11:48:40.480Z,13.83
2019-02-25T11:51:07.803Z,15.03
2019-02-25T11:53:35.057Z,12.80
2019-02-25T11:56:02.497Z,13.03
2019-02-25T11:58:29.863Z,13.40
2019-02-25T12:00:57.161Z,13.83
2019-02-25T12:03:26.572Z,12.07
2019-02-25T12:05:53.878Z,13.30
2019-02-25T12:08:21.196Z,13.97
2019-02-25T12:10:48.576Z,12.67
2019-02-25T12:13:15.852Z,13.97
2019-02-25T12:15:43.255Z,12.27
2019-02-25T12:18:10.489Z,12.33
2019-02-25T12:20:37.813Z,12.93
2019-02-25T12:23:05.173Z,12.10
2019-02-25T12:25:32.413Z,11.47
2019-02-25T12:28:00.336Z,13.10
2019-02-25T12:30:27.717Z,12.47
2019-02-25T12:32:54.990Z,13.73
2019-02-25T12:35:22.703Z,12.47
2019-02-25T12:37:49.974Z,12.90
2019-02-25T12:40:18.020Z,13.80
2019-02-25T12:42:46.040Z,12.60
2019-02-25T12:45:14.146Z,11.17
2019-02-25T12:47:41.485Z,13.27
2019-02-25T12:50:09.450Z,11.47
2019-02-25T12:52:36.767Z,11.90
2019-02-25T12:55:04.455Z,12.17
2019-02-25T12:57:31.697Z,14.17
2019-02-25T12:59:59.004Z,14.07
2019-02-25T13:02:26.522Z,13.60
2019-02-25T13:04:53.934Z,12.33
2019-02-25T13:07:21.250Z,12.67
2019-02-25T13:09:48.568Z,13.57
2019-02-25T13:12:15.876Z,11.33
2019-02-25T13:14:43.175Z,13.00
2019-02-25T13:17:10.434Z,10.40
2019-02-25T13:19:37.775Z,11.20
2019-02-25T13:22:05.034Z,13.13
2019-02-25T13:24:32.864Z,13.50
2019-02-25T13:27:03.181Z,13.03
2019-02-25T13:29:30.852Z,12.20
2019-02-25T13:31:58.174Z,13.07
2019-02-25T13:34:25.447Z,14.93
2019-02-25T13:36:52.743Z,12.97
2019-02-25T13:39:20.156Z,12.70
2019-02-25T13:41:47.512Z,15.10
2019-02-25T13:44:15.308Z,12.40
2019-02-25T13:46:42.608Z,13.30
2019-02-25T13:49:09.910Z,13.33
2019-02-25T13:51:37.188Z,11.77
2019-02-25T13:54:04.532Z,13.60
2019-02-25T13:56:31.851Z,13.60
2019-02-25T13:58:59.109Z,12.57
2019-02-25T14:01:28.859Z,12.53
2019-02-25T14:03:55.806Z,13.07
2019-02-25T14:06:23.105Z,14.47
2019-02-25T14:08:50.435Z,11.63
2019-02-25T14:11:17.796Z,12.70
2019-02-25T14:13:45.302Z,10.97
2019-02-25T14:16:12.677Z,9.83
2019-02-25T14:18:39.990Z,10.03
2019-02-25T14:21:07.343Z,10.13
2019-02-25T14:23:34.598Z,10.53
2019-02-25T14:26:01.932Z,10.20
2019-02-25T14:28:30.075Z,10.57
2019-02-25T14:30:57.678Z,11.57
2019-02-25T14:33:24.962Z,11.17
2019-02-25T14:35:53.164Z,11.13
2019-02-25T14:38:22.679Z,10.43
2019-02-25T14:40:51.367Z,11.03
2019-02-25T14:43:20.583Z,12.10
2019-02-25T14:45:51.768Z,12.33
2019-02-25T14:48:20.455Z,11.23
2019-02-25T14:50:46.766Z,11.33
2019-02-25T14:53:14.494Z,12.03
2019-02-25T14:55:42.800Z,12.37
2019-02-25T14:58:12.752Z,11.60
2019-02-25T15:00:40.680Z,10.80
2019-02-25T15:03:08.154Z,13.27
2019-02-25T15:05:35.514Z,13.73
2019-02-25T15:08:03.006Z,12.10
2019-02-25T15:10:31.573Z,11.83
2019-02-25T15:13:01.639Z,11.20
2019-02-25T15:15:28.845Z,11.60
2019-02-25T15:17:56.328Z,12.60
2019-02-25T15:20:25.959Z,11.17
2019-02-25T15:22:53.039Z,13.43
2019-02-25T15:25:20.561Z,12.00
2019-02-25T15:27:47.924Z,11.77
2019-02-25T15:30:18.584Z,13.83
2019-02-25T15:32:55.591Z,11.90
2019-02-25T15:35:16.993Z,10.87
2019-02-25T15:37:46.581Z,11.07
2019-02-25T15:40:17.937Z,11.60
2019-02-25T15:42:43.868Z,9.37
2019-02-25T15:45:14.379Z,10.60
2019-02-25T15:47:42.456Z,10.83
2019-02-25T15:50:12.760Z,10.67
2019-02-25T15:52:40.514Z,12.00
2019-02-25T15:55:17.337Z,12.13
2019-02-25T15:57:45.593Z,11.40
2019-02-25T16:00:16.202Z,15.67
2019-02-25T16:02:43.531Z,15.47
2019-02-25T16:05:11.092Z,15.87
2019-02-25T16:07:40.111Z,13.23
2019-02-25T16:10:09.594Z,13.43
2019-02-25T16:12:38.502Z,14.93
2019-02-25T16:15:11.113Z,13.60
2019-02-25T16:17:39.718Z,16.07
2019-02-25T16:20:08.343Z,18.67
2019-02-25T16:22:36.393Z,21.23
2019-02-25T16:25:07.343Z,19.37
2019-02-25T16:27:36.926Z,21.07
2019-02-25T16:30:08.067Z,17.50
2019-02-25T16:32:35.356Z,20.03
2019-02-25T16:35:06.753Z,19.47
2019-02-25T16:37:35.571Z,20.33
2019-02-25T16:40:05.778Z,19.43
2019-02-25T16:42:33.134Z,16.33
2019-02-25T16:45:03.833Z,19.40
2019-02-25T16:47:32.912Z,23.40
2019-02-25T16:50:00.762Z,22.47
2019-02-25T16:52:28.474Z,22.57
2019-02-25T16:54:55.841Z,20.23
2019-02-25T16:57:24.687Z,23.50
2019-02-25T16:59:53.755Z,22.97
2019-02-25T17:02:21.637Z,25.33
2019-02-25T17:04:48.966Z,21.40
2019-02-25T17:07:17.849Z,22.80
2019-02-25T17:09:45.489Z,21.43
2019-02-25T17:12:12.885Z,19.63
2019-02-25T17:14:40.965Z,21.73
2019-02-25T17:17:08.816Z,18.77
2019-02-25T17:19:38.485Z,20.70
2019-02-25T17:22:05.558Z,20.40
2019-02-25T17:24:34.758Z,19.00
2019-02-25T17:27:04.439Z,22.33
2019-02-25T17:29:31.958Z,22.30
2019-02-25T17:32:01.896Z,21.57
2019-02-25T17:34:29.721Z,21.60
2019-02-25T17:36:57.222Z,21.77
2019-02-25T17:39:24.490Z,27.87
2019-02-25T17:41:51.808Z,23.37
2019-02-25T17:44:20.690Z,26.33
2019-02-25T17:46:48.261Z,35.07
2019-02-25T17:49:17.349Z,32.23
2019-02-25T17:51:44.721Z,30.47
2019-02-25T17:54:12.509Z,27.30
2019-02-25T17:56:42.946Z,32.00
2019-02-25T17:59:10.381Z,39.27
2019-02-25T18:01:37.681Z,51.40
2019-02-25T18:04:06.683Z,34.03
2019-02-25T18:06:36.201Z,31.57
2019-02-25T18:09:07.758Z,27.43
2019-02-25T18:11:36.919Z,32.93
2019-02-25T18:14:04.647Z,29.53
2019-02-25T18:16:33.263Z,29.60
2019-02-25T18:19:01.226Z,33.70
2019-02-25T18:21:29.045Z,28.37
2019-02-25T18:23:56.465Z,28.70
2019-02-25T18:26:24.062Z,27.57
2019-02-25T18:28:52.636Z,29.33
2019-02-25T18:31:20.455Z,30.60
2019-02-25T18:33:48.609Z,26.70
2019-02-25T18:36:17.149Z,26.00
2019-02-25T18:38:46.222Z,25.17
2019-02-25T18:41:13.762Z,24.63
2019-02-25T18:43:42.847Z,26.67
2019-02-25T18:46:10.237Z,28.60
2019-02-25T18:48:37.595Z,25.30
2019-02-25T18:51:05.036Z,27.57
2019-02-25T18:53:32.786Z,26.43
2019-02-25T18:56:00.059Z,25.97
2019-02-25T18:58:27.342Z,25.10
2019-02-25T19:00:57.009Z,24.90
2019-02-25T19:03:24.918Z,23.73
2019-02-25T19:05:54.963Z,23.73
2019-02-25T19:08:24.624Z,25.07
2019-02-25T19:10:54.825Z,29.23
2019-02-25T19:13:23.287Z,30.30
2019-02-25T19:15:53.072Z,35.37
2019-02-25T19:18:21.207Z,32.93
2019-02-25T19:20:48.504Z,28.23
2019-02-25T19:23:16.584Z,28.47
2019-02-25T19:25:44.184Z,26.27
2019-02-25T19:28:14.252Z,23.90
2019-02-25T19:30:40.936Z,25.10
2019-02-25T19:33:11.381Z,25.20
2019-02-25T19:35:38.985Z,28.10
2019-02-25T19:38:07.844Z,28.23
2019-02-25T19:40:38.448Z,30.40
2019-02-25T19:43:06.418Z,27.00
2019-02-25T19:45:34.343Z,29.07
2019-02-25T19:48:05.204Z,28.27
2019-02-25T19:50:34.210Z,27.63
2019-02-25T19:53:04.617Z,26.27
2019-02-25T19:55:30.955Z,25.50
2019-02-25T19:57:59.689Z,26.27
2019-02-25T20:00:29.729Z,26.90
2019-02-25T20:03:05.047Z,28.83
2019-02-25T20:05:27.732Z,33.63
2019-02-25T20:07:57.413Z,41.40
2019-02-25T20:10:25.329Z,34.87
2019-02-25T20:12:53.293Z,37.70
2019-02-25T20:15:24.904Z,30.03
2019-02-25T20:17:50.604Z,31.93
2019-02-25T20:20:19.721Z,33.20
2019-02-25T20:22:47.359Z,35.57
2019-02-25T20:25:16.668Z,37.17
2019-02-25T20:27:44.854Z,33.27
2019-02-25T20:30:13.755Z,41.10
2019-02-25T20:32:42.885Z,38.50
2019-02-25T20:35:13.997Z,36.60
2019-02-25T20:37:40.965Z,32.70
2019-02-25T20:40:09.219Z,33.40
2019-02-25T20:42:36.560Z,35.27
2019-02-25T20:45:05.382Z,38.57
2019-02-25T20:47:32.685Z,34.17
2019-02-25T20:50:00.603Z,35.57
2019-02-25T20:52:29.173Z,32.10
2019-02-25T20:54:56.479Z,29.83
2019-02-25T20:57:23.754Z,34.70
2019-02-25T20:59:52.798Z,36.87
2019-02-25T21:02:21.131Z,35.43
2019-02-25T21:04:51.884Z,31.47
2019-02-25T21:07:19.211Z,24.57
2019-02-25T21:09:46.514Z,24.17
2019-02-25T21:12:15.679Z,26.93
2019-02-25T21:14:44.861Z,29.37
2019-02-25T21:17:12.172Z,30.83
2019-02-25T21:19:40.042Z,28.33
2019-02-25T21:22:08.885Z,28.00
2019-02-25T21:24:37.550Z,26.47
2019-02-25T21:27:06.360Z,28.10
2019-02-25T21:29:36.506Z,28.67
2019-02-25T21:32:03.668Z,26.10
2019-02-25T21:34:32.848Z,27.60
2019-02-25T21:37:00.729Z,25.80
2019-02-25T21:39:29.284Z,24.43
2019-02-25T21:41:56.512Z,24.80
2019-02-25T21:44:26.207Z,22.97
2019-02-25T21:46:54.052Z,25.27
2019-02-25T21:49:25.114Z,24.77
2019-02-25T21:51:51.099Z,24.97
2019-02-25T21:54:18.367Z,23.60
2019-02-25T21:56:45.685Z,22.90
2019-02-25T21:59:15.084Z,22.67
2019-02-25T22:01:42.084Z,23.77
2019-02-25T22:04:13.161Z,23.30
2019-02-25T22:06:38.571Z,21.10
2019-02-25T22:09:06.596Z,21.73
2019-02-25T22:11:33.916Z,22.40
2019-02-25T22:14:01.171Z,20.17
2019-02-25T22:16:30.106Z,21.73
2019-02-25T22:18:58.743Z,21.50
2019-02-25T22:21:26.194Z,23.13
2019-02-25T22:23:56.165Z,21.23
2019-02-25T22:26:26.587Z,22.70
2019-02-25T22:28:53.222Z,20.80
2019-02-25T22:31:21.225Z,20.60
2019-02-25T22:33:48.549Z,19.70
2019-02-25T22:36:15.899Z,19.13
2019-02-25T22:38:43.214Z,18.17
2019-02-25T22:41:10.502Z,21.00
2019-02-25T22:43:39.144Z,20.47
2019-02-25T22:46:09.208Z,20.20
2019-02-25T22:48:37.566Z,21.87
2019-02-25T22:51:07.012Z,21.33
2019-02-25T22:53:34.428Z,22.17
2019-02-25T22:56:03.972Z,22.80
2019-02-25T22:58:33.959Z,24.77
2019-02-25T23:01:09.558Z,23.90
2019-02-25T23:03:36.842Z,22.13
2019-02-25T23:06:04.245Z,23.80
2019-02-25T23:08:31.567Z,22.53
2019-02-25T23:10:59.473Z,20.73
2019-02-25T23:13:29.333Z,24.00
2019-02-25T23:15:55.965Z,22.80
2019-02-25T23:18:25.827Z,23.13
2019-02-25T23:20:54.771Z,23.57
2019-02-25T23:23:25.394Z,26.57
2019-02-25T23:25:51.506Z,26.33
2019-02-25T23:28:21.018Z,25.73
2019-02-25T23:30:51.011Z,27.07
2019-02-25T23:33:19.738Z,31.47
2019-02-25T23:35:49.177Z,30.40
2019-02-25T23:38:16.689Z,30.83
2019-02-25T23:41:09.992Z,35.80
2019-02-25T23:44:07.124Z,33.20
2019-02-25T23:46:37.232Z,33.27
2019-02-25T23:49:04.947Z,29.87
2019-02-25T23:51:32.185Z,33.17
2019-02-25T23:53:59.581Z,32.60
2019-02-25T23:56:27.516Z,30.10
2019-02-25T23:58:56.000Z,29.97
